Terminal Aerodrome Forecast
Issued by NWS Cleveland, OH

Home | Current Version | Previous Version | Graphics & Text | Print | Product List | Glossary On
Versions: 1 2 3 4 5 6 7 8 9 10 11 12 13 14 15 16
000
FTUS41 KCLE 051735
TAFMFD
TAF
KMFD 051735Z 0518/0618 36010KT 6SM BR BKN008 OVC015
     FM051900 36010KT P6SM SCT008 OVC015
     FM052100 01012G22KT P6SM SCT015 OVC035
     FM060000 36010KT P6SM BKN050
     FM060700 35006KT P6SM SCT250=

USA.gov is the U.S. government's official web portal to all federal, state and local government web resources and services.